Atlantic - Newfoundland: Past 24 Hour Conditions

 

Port aux Basques

07:30 PM NDT 23 April 2014
This table is a summary of hourly weather conditions for the past 24 hours.
Date / Time
(NDT)
Wind(knots) Conditions Visibility(km) Pressure(kPa) Air tempC) Relative humidity(%) Dew pointC)
23 April 2014
19:30 ENE 15 Mostly Cloudy 15 100.4 6 80 3
18:30 ENE 13 Cloudy 15 100.5 6 81 3
17:30 E 10 Cloudy 15 100.5 5 87 3
16:30 E 14 Light Drizzle 3 100.5 4 98 4
15:30 E 12 gust 18 Light Drizzle 6 100.6 3 93 2
14:30 E 10 gust 16 Cloudy 15 100.6 3 89 2
13:30 E 12 gust 17 Cloudy 15 100.7 4 86 2
12:30 E 19 gust 27 Mostly Cloudy 15 100.7 5 86 3
11:30 E 18 gust 26 Cloudy 15 100.7 4 93 2
10:30 E 22 gust 31 Cloudy 11 100.7 3 94 2
9:30 E 20 gust 26 Light Drizzle 15 100.8 2 94 1
8:30 E 20 gust 30 Cloudy 15 100.8 2 90 1
7:30 E 19 Partly Cloudy 15 100.8 2 88 1
6:30 E 16 Cloudy 15 100.8 2 90 1
5:30 E 14 Mainly Clear 15 100.8 2 90 1
4:30 E 16 Partly Cloudy 15 100.9 2 92 1
3:30 E 18 Partly Cloudy 15 100.9 1 94 1
2:30 ESE 13 gust 18 Mainly Clear 15 100.9 1 94 1
1:30 E 13 Clear 13 101.0 1 95 1
0:30 E 11 Light Rain 10 101.0 1 96 1
22 April 2014
23:30 E 11 Light Rain 10 101.0 1 95 1
22:30 E 13 Light Rain 11 101.0 2 92 0
21:30 E 10 Light Rain 15 101.0 2 90 0
20:30 E 9 Clear 15 101.0 1 92 0
19:30 E 10 Cloudy 15 101.0 1 95 0
 
Map of Atlantic - Newfoundland marine weather areas Southwestern Grand Banks - 44138 Banquereau - 44139 Tail of the Bank - 44140 Nickerson Bank - 44251 Northeast Burgeo Bank - 44255 Blanc-Sablon Airport Cap Whittle Chevery Natashquan Airport Heath Point Miscou Island Grand Étang Ingonish Beach North Mountain St.Paul Island J.A. Douglas McCurdy Sydney Airport Charlottetown Airport East Point North Cape Argentia Bonavista Burgeo Cape Race Corner Brook Daniel's Harbour Englee Ferolle Point La Scie Port aux Basques Rocky Harbour Sagona Island St. Anthony Airport St. John's Int'l Airport St. Lawrence Stephenville Airport Twillingate Winterland Wreckhouse Cartwright Airport Mary's Harbour Grates Cove Pool's Island Marticot Island Long Pond Îles de la Madeleine Airport
Legend: buoyBuoy land stationLand Station